createdAt,value
2018-08-14T00:01:49.438Z,16.23
2018-08-14T00:04:20.901Z,18.70
2018-08-14T00:06:52.311Z,17.58
2018-08-14T00:09:25.232Z,18.08
2018-08-14T00:11:58.788Z,17.05
2018-08-14T00:14:31.948Z,17.85
2018-08-14T00:17:01.823Z,17.30
2018-08-14T00:19:34.721Z,17.62
2018-08-14T00:22:06.564Z,17.65
2018-08-14T00:24:39.783Z,16.83
2018-08-14T00:27:11.926Z,17.98
2018-08-14T00:29:46.292Z,16.83
2018-08-14T00:32:19.498Z,16.12
2018-08-14T00:34:59.975Z,17.30
2018-08-14T00:37:31.488Z,17.40
2018-08-14T00:40:05.070Z,18.27
2018-08-14T00:42:38.093Z,18.30
2018-08-14T00:45:14.494Z,17.60
2018-08-14T00:47:47.767Z,17.65
2018-08-14T00:50:22.252Z,18.12
2018-08-14T00:52:52.286Z,19.23
2018-08-14T00:55:25.761Z,18.98
2018-08-14T00:57:57.623Z,18.70
2018-08-14T01:00:38.953Z,19.12
2018-08-14T01:03:14.488Z,18.42
2018-08-14T01:05:47.582Z,19.35
2018-08-14T01:08:17.568Z,20.12
2018-08-14T01:10:51.093Z,20.40
2018-08-14T01:13:22.643Z,20.20
2018-08-14T01:15:54.487Z,19.42
2018-08-14T01:18:27.615Z,19.37
2018-08-14T01:20:57.660Z,19.40
2018-08-14T01:23:30.527Z,20.48
2018-08-14T01:26:03.754Z,20.00
2018-08-14T01:28:36.959Z,21.08
2018-08-14T01:31:12.069Z,19.65
2018-08-14T01:33:46.481Z,19.62
2018-08-14T01:36:19.469Z,19.50
2018-08-14T01:38:52.337Z,18.20
2018-08-14T01:41:27.022Z,17.92
2018-08-14T01:44:01.049Z,19.12
2018-08-14T01:46:34.109Z,18.83
2018-08-14T01:49:08.651Z,17.23
2018-08-14T01:51:41.204Z,17.52
2018-08-14T01:54:15.655Z,17.08
2018-08-14T01:56:50.100Z,17.70
2018-08-14T01:59:21.587Z,17.92
2018-08-14T02:01:51.633Z,16.87
2018-08-14T02:04:24.576Z,18.05
2018-08-14T02:06:59.178Z,17.65
2018-08-14T02:09:32.579Z,16.75
2018-08-14T02:12:04.143Z,17.20
2018-08-14T02:14:35.663Z,15.70
2018-08-14T02:17:08.859Z,17.67
2018-08-14T02:19:43.229Z,16.70
2018-08-14T02:22:16.280Z,15.98
2018-08-14T02:24:48.093Z,16.83
2018-08-14T02:27:19.744Z,15.80
2018-08-14T02:29:51.254Z,15.68
2018-08-14T02:32:22.738Z,16.60
2018-08-14T02:34:54.632Z,14.13
2018-08-14T02:37:29.012Z,15.00
2018-08-14T02:39:59.111Z,15.57
2018-08-14T02:42:30.615Z,15.30
2018-08-14T02:45:02.138Z,12.93
2018-08-14T02:47:33.565Z,14.95
2018-08-14T02:50:06.461Z,14.52
2018-08-14T02:52:36.457Z,14.25
2018-08-14T02:55:11.063Z,12.37
2018-08-14T02:57:45.559Z,13.05
2018-08-14T03:00:21.335Z,12.68
2018-08-14T03:02:55.857Z,12.50
2018-08-14T03:05:28.824Z,11.50
2018-08-14T03:08:00.299Z,12.73
2018-08-14T03:10:32.493Z,11.60
2018-08-14T03:13:04.766Z,11.75
2018-08-14T03:15:37.671Z,12.50
2018-08-14T03:18:11.236Z,11.50
2018-08-14T03:20:42.895Z,11.65
2018-08-14T03:23:15.779Z,12.35
2018-08-14T03:25:47.170Z,11.90
2018-08-14T03:28:20.216Z,12.57
2018-08-14T03:30:51.691Z,12.88
2018-08-14T03:33:23.114Z,12.45
2018-08-14T03:35:54.610Z,13.43
2018-08-14T03:38:27.721Z,13.95
2018-08-14T03:40:59.242Z,13.98
2018-08-14T03:43:33.869Z,14.07
2018-08-14T03:46:08.329Z,14.30
2018-08-14T03:48:41.736Z,14.45
2018-08-14T03:51:14.846Z,14.65
2018-08-14T03:53:47.291Z,14.07
2018-08-14T03:56:19.549Z,14.02
2018-08-14T03:58:53.661Z,15.00
2018-08-14T04:01:27.616Z,12.85
2018-08-14T04:03:57.607Z,12.95
2018-08-14T04:06:29.272Z,11.75
2018-08-14T04:09:02.892Z,9.90
2018-08-14T04:11:34.372Z,10.48
2018-08-14T04:14:07.550Z,9.13
2018-08-14T04:16:39.745Z,7.20
2018-08-14T04:19:14.198Z,6.93
2018-08-14T04:21:48.989Z,5.50
2018-08-14T04:24:23.068Z,4.75
2018-08-14T04:26:56.346Z,4.03
2018-08-14T04:29:30.818Z,3.03
2018-08-14T04:32:03.734Z,2.90
2018-08-14T04:34:34.448Z,2.80
2018-08-14T04:37:07.576Z,2.80
2018-08-14T04:39:38.971Z,2.60
2018-08-14T04:42:13.284Z,2.42
2018-08-14T04:44:46.284Z,2.10
2018-08-14T04:47:20.976Z,2.20
2018-08-14T04:49:53.850Z,2.25
2018-08-14T04:52:28.050Z,1.80
2018-08-14T04:55:00.013Z,1.92
2018-08-14T04:57:34.507Z,1.95
2018-08-14T05:00:06.206Z,1.75
2018-08-14T05:02:39.169Z,2.05
2018-08-14T05:05:15.278Z,1.87
2018-08-14T05:07:46.774Z,1.20
2018-08-14T05:10:22.140Z,1.80
2018-08-14T05:12:56.949Z,1.40
2018-08-14T05:15:30.083Z,1.65
2018-08-14T05:18:03.715Z,1.40
2018-08-14T05:20:36.654Z,1.40
2018-08-14T05:23:07.557Z,1.55
2018-08-14T05:25:42.197Z,1.52
2018-08-14T05:28:15.533Z,1.33
2018-08-14T05:30:48.538Z,1.25
2018-08-14T05:33:20.246Z,1.20
2018-08-14T05:35:50.290Z,1.30
2018-08-14T05:38:21.986Z,1.70
2018-08-14T05:40:53.879Z,1.35
2018-08-14T05:43:25.428Z,1.35
2018-08-14T05:45:58.250Z,1.98
2018-08-14T05:48:30.112Z,1.52
2018-08-14T05:51:03.167Z,1.15
2018-08-14T05:53:35.434Z,1.50
2018-08-14T05:56:06.881Z,1.20
2018-08-14T05:58:39.777Z,1.67
2018-08-14T06:01:12.911Z,1.62
2018-08-14T06:03:43.656Z,1.80
2018-08-14T06:06:16.839Z,1.58
2018-08-14T06:08:47.342Z,1.40
2018-08-14T06:11:18.911Z,1.98
2018-08-14T06:13:51.986Z,1.50
2018-08-14T06:16:25.232Z,1.50
2018-08-14T06:18:57.148Z,1.62
2018-08-14T06:21:31.788Z,1.80
2018-08-14T06:24:06.411Z,1.52
2018-08-14T06:26:37.933Z,1.35
2018-08-14T06:29:12.509Z,1.15
2018-08-14T06:31:45.689Z,1.70
2018-08-14T06:34:18.701Z,1.70
2018-08-14T06:36:50.162Z,1.75
2018-08-14T06:39:22.944Z,1.67
2018-08-14T06:41:55.873Z,1.50
2018-08-14T06:44:28.903Z,1.60
2018-08-14T06:47:01.845Z,1.40
2018-08-14T06:49:34.749Z,1.62
2018-08-14T06:52:07.709Z,1.67
2018-08-14T06:54:38.276Z,1.40
2018-08-14T06:57:10.707Z,2.12
2018-08-14T06:59:44.009Z,1.70
2018-08-14T07:02:16.999Z,1.15
2018-08-14T07:04:48.576Z,1.27
2018-08-14T07:07:21.462Z,1.52
2018-08-14T07:09:53.560Z,1.62
2018-08-14T07:12:26.642Z,1.65
2018-08-14T07:14:59.616Z,2.08
2018-08-14T07:17:30.517Z,1.60
2018-08-14T07:20:00.489Z,1.95
2018-08-14T07:22:32.017Z,2.22
2018-08-14T07:25:04.887Z,1.83
2018-08-14T07:27:36.621Z,2.00
2018-08-14T07:30:17.558Z,1.77
2018-08-14T07:32:52.289Z,1.70
2018-08-14T07:35:23.986Z,2.08
2018-08-14T07:37:57.014Z,1.65
2018-08-14T07:40:28.425Z,1.65
2018-08-14T07:43:00.028Z,1.60
2018-08-14T07:45:36.498Z,1.98
2018-08-14T07:48:09.438Z,1.58
2018-08-14T07:50:39.426Z,1.73
2018-08-14T07:53:11.594Z,1.50
2018-08-14T07:55:44.529Z,1.60
2018-08-14T07:58:18.996Z,1.65
2018-08-14T08:00:51.978Z,1.60
2018-08-14T08:03:24.575Z,1.27
2018-08-14T08:05:57.651Z,2.15
2018-08-14T08:08:29.043Z,1.83
2018-08-14T08:11:01.089Z,1.77
2018-08-14T08:13:35.596Z,2.28
2018-08-14T08:16:08.580Z,2.20
2018-08-14T08:18:40.132Z,1.73
2018-08-14T08:21:13.293Z,1.80
2018-08-14T08:23:46.178Z,2.08
2018-08-14T08:26:20.615Z,2.30
2018-08-14T08:28:55.078Z,2.03
2018-08-14T08:31:28.207Z,1.87
2018-08-14T08:34:01.095Z,2.10
2018-08-14T08:36:31.092Z,1.87
2018-08-14T08:39:04.645Z,1.65
2018-08-14T08:41:36.177Z,1.90
2018-08-14T08:44:10.527Z,1.98
2018-08-14T08:46:42.020Z,1.48
2018-08-14T08:49:13.228Z,1.50
2018-08-14T08:51:46.377Z,1.85
2018-08-14T08:54:17.807Z,1.92
2018-08-14T08:56:51.063Z,1.80
2018-08-14T08:59:22.408Z,1.83
2018-08-14T09:01:58.214Z,1.70
2018-08-14T09:04:32.687Z,1.80
2018-08-14T09:07:05.920Z,2.12
2018-08-14T09:09:39.200Z,1.83
2018-08-14T09:12:13.917Z,1.58
2018-08-14T09:14:47.337Z,1.95
2018-08-14T09:17:19.160Z,1.50
2018-08-14T09:19:51.539Z,2.05
2018-08-14T09:22:26.195Z,1.55
2018-08-14T09:24:59.226Z,2.50
2018-08-14T09:27:30.808Z,1.67
2018-08-14T09:30:02.838Z,1.98
2018-08-14T09:32:36.296Z,2.12
2018-08-14T09:35:10.592Z,1.70
2018-08-14T09:37:43.675Z,1.90
2018-08-14T09:40:18.799Z,2.35
2018-08-14T09:42:56.747Z,1.80
2018-08-14T09:45:28.287Z,1.50
2018-08-14T09:48:02.234Z,1.70
2018-08-14T09:50:34.495Z,1.90
2018-08-14T09:53:05.957Z,1.35
2018-08-14T09:55:37.915Z,2.08
2018-08-14T09:58:11.449Z,2.05
2018-08-14T10:01:02.108Z,2.10
2018-08-14T10:03:52.823Z,1.80
2018-08-14T10:06:40.435Z,1.42
2018-08-14T10:09:14.493Z,1.83
2018-08-14T10:11:46.025Z,1.98
2018-08-14T10:14:17.235Z,1.42
2018-08-14T10:16:48.811Z,1.83
2018-08-14T10:19:18.837Z,1.60
2018-08-14T10:21:50.330Z,2.00
2018-08-14T10:24:23.247Z,2.20
2018-08-14T10:26:56.154Z,1.80
2018-08-14T10:29:28.338Z,1.48
2018-08-14T10:32:01.675Z,1.50
2018-08-14T10:34:34.109Z,1.60
2018-08-14T10:37:07.167Z,2.10
2018-08-14T10:39:38.933Z,1.92
2018-08-14T10:42:13.334Z,1.70
2018-08-14T10:44:44.706Z,1.85
2018-08-14T10:47:16.240Z,2.12
2018-08-14T10:49:50.858Z,1.73
2018-08-14T10:52:23.849Z,1.62
2018-08-14T10:54:55.384Z,1.90
2018-08-14T10:57:25.917Z,1.92
2018-08-14T11:00:00.361Z,1.67
2018-08-14T11:02:31.848Z,1.65
2018-08-14T11:05:04.849Z,1.80
2018-08-14T11:07:37.807Z,1.58
2018-08-14T11:10:14.847Z,1.85
2018-08-14T11:12:46.149Z,1.75
2018-08-14T11:15:16.671Z,1.92
2018-08-14T11:17:47.167Z,2.10
2018-08-14T11:20:27.683Z,1.90
2018-08-14T11:23:03.422Z,2.15
2018-08-14T11:25:36.400Z,1.67
2018-08-14T11:28:08.134Z,2.10
2018-08-14T11:30:41.128Z,1.90
2018-08-14T11:33:12.700Z,1.90
2018-08-14T11:36:01.454Z,2.00
2018-08-14T11:38:35.046Z,2.17
2018-08-14T11:41:06.925Z,2.15
2018-08-14T11:43:38.314Z,2.00
2018-08-14T11:46:11.383Z,1.60
2018-08-14T11:48:43.019Z,1.58
2018-08-14T11:51:17.600Z,1.80
2018-08-14T11:53:50.478Z,2.15
2018-08-14T11:56:20.642Z,2.22
2018-08-14T11:58:52.319Z,1.95
2018-08-14T12:01:26.172Z,1.50
2018-08-14T12:03:58.120Z,1.60
2018-08-14T12:06:31.100Z,1.60
2018-08-14T12:09:02.549Z,1.80
2018-08-14T12:11:35.489Z,1.77
2018-08-14T12:14:08.608Z,1.70
2018-08-14T12:16:41.738Z,1.33
2018-08-14T12:19:16.174Z,1.30
2018-08-14T12:21:49.217Z,1.33
2018-08-14T12:24:19.208Z,1.42
2018-08-14T12:26:49.992Z,1.30
2018-08-14T12:29:21.396Z,1.58
2018-08-14T12:31:52.788Z,1.37
2018-08-14T12:34:26.140Z,1.83
2018-08-14T12:36:58.643Z,1.15
2018-08-14T12:39:30.195Z,1.75
2018-08-14T12:42:03.633Z,1.50
2018-08-14T12:44:35.146Z,1.73
2018-08-14T12:47:08.238Z,1.30
2018-08-14T12:49:41.442Z,1.23
2018-08-14T12:52:11.384Z,1.23
2018-08-14T12:54:44.531Z,1.55
2018-08-14T12:57:17.033Z,1.40
2018-08-14T12:59:50.066Z,1.33
2018-08-14T13:02:21.024Z,1.48
2018-08-14T13:04:50.681Z,1.15
2018-08-14T13:07:22.055Z,1.60
2018-08-14T13:09:53.736Z,1.40
2018-08-14T13:12:23.667Z,1.60
2018-08-14T13:14:56.675Z,1.30
2018-08-14T13:17:26.702Z,1.50
2018-08-14T13:20:00.468Z,1.25
2018-08-14T13:22:33.451Z,1.37
2018-08-14T13:25:05.390Z,1.70
2018-08-14T13:27:38.704Z,1.40
2018-08-14T13:30:15.995Z,1.30
2018-08-14T13:32:49.078Z,1.50
2018-08-14T13:35:21.948Z,1.40
2018-08-14T13:37:55.032Z,1.42
2018-08-14T13:40:26.624Z,1.50
2018-08-14T13:42:58.585Z,1.70
2018-08-14T13:45:31.188Z,1.80
2018-08-14T13:48:04.190Z,1.65
2018-08-14T13:50:35.837Z,1.50
2018-08-14T13:53:06.028Z,2.03
2018-08-14T13:55:37.606Z,1.40
2018-08-14T13:58:10.530Z,1.42
2018-08-14T14:00:42.045Z,1.90
2018-08-14T14:03:13.444Z,1.58
2018-08-14T14:05:44.985Z,1.80
2018-08-14T14:08:18.848Z,1.58
2018-08-14T14:10:50.470Z,1.92
2018-08-14T14:13:23.419Z,1.80
2018-08-14T14:15:56.838Z,1.92
2018-08-14T14:18:29.912Z,2.17
2018-08-14T14:21:02.148Z,2.10
2018-08-14T14:23:35.928Z,2.08
2018-08-14T14:26:09.303Z,1.65
2018-08-14T14:28:42.375Z,1.80
2018-08-14T14:31:16.996Z,2.05
2018-08-14T14:33:50.130Z,1.83
2018-08-14T14:36:21.903Z,1.67
2018-08-14T14:38:53.323Z,1.92
2018-08-14T14:41:24.806Z,1.80
2018-08-14T14:43:57.154Z,2.15
2018-08-14T14:46:28.712Z,2.60
2018-08-14T14:49:03.288Z,2.12
2018-08-14T14:51:34.962Z,1.92
2018-08-14T14:54:08.236Z,2.33
2018-08-14T14:56:42.661Z,2.20
2018-08-14T14:59:15.751Z,1.92
2018-08-14T15:01:45.755Z,2.00
2018-08-14T15:04:18.615Z,2.12
2018-08-14T15:06:51.968Z,1.80
2018-08-14T15:09:24.841Z,2.35
2018-08-14T15:11:57.860Z,2.10
2018-08-14T15:14:29.396Z,2.47
2018-08-14T15:17:03.899Z,2.78
2018-08-14T15:19:36.359Z,2.92
2018-08-14T15:22:09.640Z,2.40
2018-08-14T15:24:41.217Z,2.83
2018-08-14T15:27:14.115Z,2.62
2018-08-14T15:29:47.179Z,2.72
2018-08-14T15:32:21.876Z,2.30
2018-08-14T15:34:56.250Z,2.50
2018-08-14T15:37:29.454Z,2.85
2018-08-14T15:40:04.266Z,2.80
2018-08-14T15:42:35.821Z,3.17
2018-08-14T15:45:09.034Z,2.60
2018-08-14T15:47:42.217Z,2.78
2018-08-14T15:50:15.264Z,2.90
2018-08-14T15:52:45.281Z,3.37
2018-08-14T15:55:15.172Z,3.30
2018-08-14T15:57:48.111Z,3.70
2018-08-14T16:00:19.543Z,3.20
2018-08-14T16:02:51.059Z,2.90
2018-08-14T16:05:23.860Z,3.45
2018-08-14T16:07:55.708Z,3.47
2018-08-14T16:10:28.720Z,3.40
2018-08-14T16:13:00.176Z,4.37
2018-08-14T16:15:31.605Z,3.92
2018-08-14T16:18:03.060Z,3.97
2018-08-14T16:20:37.720Z,4.68
2018-08-14T16:23:09.151Z,3.67
2018-08-14T16:25:40.796Z,4.07
2018-08-14T16:28:14.237Z,3.47
2018-08-14T16:30:47.266Z,3.70
2018-08-14T16:33:18.713Z,3.67
2018-08-14T16:35:50.223Z,3.75
2018-08-14T16:38:23.118Z,3.72
2018-08-14T16:40:54.587Z,3.92
2018-08-14T16:43:26.356Z,4.05
2018-08-14T16:45:56.367Z,4.65
2018-08-14T16:48:27.810Z,4.25
2018-08-14T16:50:57.868Z,3.90
2018-08-14T16:53:30.704Z,4.03
2018-08-14T16:56:02.095Z,4.10
2018-08-14T16:58:35.256Z,4.57
2018-08-14T17:01:08.403Z,5.10
2018-08-14T17:03:39.980Z,5.07
2018-08-14T17:06:12.966Z,4.10
2018-08-14T17:08:44.538Z,4.78
2018-08-14T17:11:16.529Z,5.20
2018-08-14T17:13:49.634Z,5.82
2018-08-14T17:16:22.479Z,5.70
2018-08-14T17:18:53.948Z,7.18
2018-08-14T17:21:22.336Z,6.82
2018-08-14T17:23:53.906Z,7.07
2018-08-14T17:26:27.072Z,7.60
2018-08-14T17:29:00.315Z,7.53
2018-08-14T17:31:33.495Z,7.80
2018-08-14T17:34:06.179Z,8.70
2018-08-14T17:36:36.720Z,8.70
2018-08-14T17:39:11.838Z,7.85
2018-08-14T17:41:43.231Z,8.75
2018-08-14T17:44:14.638Z,8.70
2018-08-14T17:46:47.831Z,8.93
2018-08-14T17:49:19.393Z,9.52
2018-08-14T17:51:52.594Z,9.30
2018-08-14T17:54:27.020Z,9.02
2018-08-14T17:57:00.002Z,8.98
2018-08-14T17:59:30.043Z,9.80
2018-08-14T18:02:03.203Z,9.65
2018-08-14T18:04:36.542Z,9.77
2018-08-14T18:07:08.320Z,9.77
2018-08-14T18:09:41.333Z,9.60
2018-08-14T18:12:15.738Z,9.95
2018-08-14T18:14:48.771Z,10.57
2018-08-14T18:17:22.372Z,10.38
2018-08-14T18:19:55.495Z,10.32
2018-08-14T18:22:26.917Z,11.23
2018-08-14T18:24:59.865Z,10.32
2018-08-14T18:27:32.996Z,11.18
2018-08-14T18:30:05.908Z,11.73
2018-08-14T18:32:37.417Z,10.77
2018-08-14T18:35:10.924Z,11.50
2018-08-14T18:37:45.432Z,13.30
2018-08-14T18:40:21.237Z,12.00
2018-08-14T18:42:54.203Z,11.38
2018-08-14T18:45:24.748Z,11.75
2018-08-14T18:47:56.597Z,11.40
2018-08-14T18:50:29.627Z,11.60
2018-08-14T18:52:59.605Z,10.35
2018-08-14T18:55:31.192Z,7.12
2018-08-14T18:58:05.682Z,5.78
2018-08-14T19:00:38.644Z,4.68
2018-08-14T19:03:10.640Z,4.60
2018-08-14T19:05:42.210Z,4.47
2018-08-14T19:08:12.159Z,4.30
2018-08-14T19:10:43.596Z,4.12
2018-08-14T19:13:15.056Z,4.12
2018-08-14T19:15:48.115Z,4.60
2018-08-14T19:18:18.988Z,4.20
2018-08-14T19:20:50.001Z,4.22
2018-08-14T19:23:20.098Z,3.75
2018-08-14T19:25:53.010Z,4.45
2018-08-14T19:28:22.992Z,4.15
2018-08-14T19:30:57.581Z,4.70
2018-08-14T19:33:29.125Z,5.22
2018-08-14T19:36:00.986Z,4.85
2018-08-14T19:38:35.771Z,4.78
2018-08-14T19:41:08.607Z,5.25
2018-08-14T19:43:41.563Z,5.20
2018-08-14T19:46:14.560Z,5.00
2018-08-14T19:48:46.062Z,4.93
2018-08-14T19:51:16.777Z,5.18
2018-08-14T19:53:48.463Z,5.18
2018-08-14T19:56:22.959Z,4.80
2018-08-14T19:58:53.935Z,4.43
2018-08-14T20:01:26.837Z,4.50
2018-08-14T20:03:57.042Z,4.20
2018-08-14T20:06:30.197Z,4.43
2018-08-14T20:09:00.218Z,5.25
2018-08-14T20:11:32.559Z,4.70
2018-08-14T20:14:07.080Z,4.95
2018-08-14T20:16:45.886Z,4.87
2018-08-14T20:19:17.321Z,5.00
2018-08-14T20:21:47.359Z,4.22
2018-08-14T20:24:20.628Z,5.68
2018-08-14T20:26:52.076Z,4.62
2018-08-14T20:29:26.774Z,4.68
2018-08-14T20:31:58.205Z,4.78
2018-08-14T20:34:30.245Z,5.00
2018-08-14T20:37:01.876Z,4.78
2018-08-14T20:39:31.903Z,4.72
2018-08-14T20:42:06.406Z,4.97
2018-08-14T20:44:39.695Z,4.80
2018-08-14T20:47:11.187Z,5.07
2018-08-14T20:49:42.396Z,5.55
2018-08-14T20:52:15.246Z,5.78
2018-08-14T20:54:48.330Z,5.40
2018-08-14T20:57:18.785Z,5.57
2018-08-14T20:59:53.203Z,5.55
2018-08-14T21:02:24.646Z,6.40
2018-08-14T21:04:56.072Z,5.82
2018-08-14T21:07:27.632Z,6.35
2018-08-14T21:09:59.238Z,6.43
2018-08-14T21:12:45.599Z,6.32
2018-08-14T21:15:37.222Z,6.65
2018-08-14T21:18:10.225Z,6.30
2018-08-14T21:20:43.256Z,6.20
2018-08-14T21:23:14.740Z,6.32
2018-08-14T21:25:46.357Z,6.40
2018-08-14T21:28:18.313Z,6.47
2018-08-14T21:30:49.758Z,6.93
2018-08-14T21:33:21.353Z,7.15
2018-08-14T21:35:54.491Z,7.00
2018-08-14T21:38:25.921Z,7.22
2018-08-14T21:40:57.391Z,6.82
2018-08-14T21:43:27.540Z,6.40
2018-08-14T21:46:00.465Z,6.50
2018-08-14T21:48:31.897Z,6.05
2018-08-14T21:51:03.498Z,6.80
2018-08-14T21:53:35.052Z,6.97
2018-08-14T21:56:09.747Z,6.62
2018-08-14T21:58:41.162Z,6.62
2018-08-14T22:01:14.121Z,7.25
2018-08-14T22:03:48.198Z,6.80
2018-08-14T22:06:21.828Z,7.25
2018-08-14T22:08:53.515Z,7.07
2018-08-14T22:11:28.371Z,6.18
2018-08-14T22:14:00.057Z,6.25
2018-08-14T22:16:34.554Z,7.20
2018-08-14T22:19:08.002Z,7.03
2018-08-14T22:21:41.192Z,6.05
2018-08-14T22:24:14.285Z,6.32
2018-08-14T22:26:46.766Z,6.50
2018-08-14T22:29:18.216Z,7.25
2018-08-14T22:31:51.243Z,7.30
2018-08-14T22:34:21.721Z,6.15
2018-08-14T22:36:56.073Z,6.32
2018-08-14T22:39:30.810Z,5.90
2018-08-14T22:42:02.241Z,6.07
2018-08-14T22:44:34.198Z,5.97
2018-08-14T22:47:05.993Z,5.65
2018-08-14T22:49:39.120Z,6.57
2018-08-14T22:52:13.466Z,6.62
2018-08-14T22:54:45.172Z,7.28
2018-08-14T22:57:18.058Z,6.65
2018-08-14T22:59:48.056Z,6.37
2018-08-14T23:02:19.255Z,7.22
2018-08-14T23:04:52.315Z,6.97
2018-08-14T23:07:25.406Z,8.20
2018-08-14T23:09:56.374Z,7.78
2018-08-14T23:12:29.620Z,7.37
2018-08-14T23:15:04.324Z,7.82
2018-08-14T23:17:37.372Z,7.82
2018-08-14T23:20:13.467Z,7.65
2018-08-14T23:22:46.504Z,8.50
2018-08-14T23:25:17.967Z,7.37
2018-08-14T23:27:52.488Z,7.97
2018-08-14T23:30:25.892Z,8.20
2018-08-14T23:32:58.880Z,7.10
2018-08-14T23:35:31.782Z,7.80
2018-08-14T23:38:03.234Z,6.87
2018-08-14T23:40:33.205Z,7.78
2018-08-14T23:43:06.112Z,8.90
2018-08-14T23:45:39.209Z,8.88
2018-08-14T23:48:11.603Z,9.90
2018-08-14T23:50:44.696Z,9.57
2018-08-14T23:53:17.663Z,9.43
2018-08-14T23:55:49.666Z,10.90
2018-08-14T23:58:21.143Z,10.68
